Terminal Aerodrome Forecast
Issued by NWS

Home | Current Version | Previous Version | Graphics & Text | Print | Product List | Glossary On
Versions: 1 2 3 4 5 6 7 8 9 10 11 12 13 14 15 16 17
000
FTUS43 KABR 202000 AAA
TAFMBG
TAF AMD
KMBG 202031Z 2021/2118 16006KT P6SM SKC
     FM210200 15008KT 2SM BR OVC008=

USA.gov is the U.S. government's official web portal to all federal, state and local government web resources and services.